Historique des mesures à Cassis (13260), France
Quotidien Résumé Juin 2, 2021 Unités:  Métrique/US    US   Métrique
Quotidien Hebdomadaire Mensuel Annuel
  Maximum: Minimum: Moyenne:
Température: 77.4 °F /  25.2 °C 62.4 °F /  16.9 °C 69.3 °F /  20.7 °C
Point de rosée: 64.6 °F /  18.1 °C 54.7 °F /  12.6 °C 60.3 °F /  15.7 °C
Humidité: 79% 65% 73%
Vitesse du vent: 9.8mph /  15.8km/h - 2.6mph /  4.2km/h
Rafales: 10.5mph /  16.9km/h - -
Vent- - WSW
Pression: 30 in /  1016.5 hPa 29.9 in /  1012.6 hPa -
Précipitations: 0 in /  0.0 mm    
Historical Graphs
 
 
Mesures pour : Juin 2, 2021
Heure Temperature Point de rosée Pression Vent Vitesse du vent Rafales Humidité Pluie (par heure)
00:11 65.7 °F /  18.7 °C 59 °F /  15 °C 30in /  1016.5hPa WNW 1.1mph /  1.8km/h 5.3mph /  8.6km/h 79% 0in /  0.0mm
01:11 65.1 °F /  18.4 °C 58.5 °F /  14.7 °C 30in /  1015.9hPa NW 2mph /  3.2km/h 4mph /  6.5km/h 79% 0in /  0.0mm
02:11 64.9 °F /  18.3 °C 58.3 °F /  14.6 °C 30in /  1015.7hPa NW 9.8mph /  15.8km/h 9.8mph /  15.8km/h 79% 0in /  0.0mm
03:11 64.6 °F /  18.1 °C 57.6 °F /  14.2 °C 30in /  1015.3hPa NW 4.5mph /  7.2km/h 6.3mph /  10.1km/h 78% 0in /  0.0mm
04:11 64.9 °F /  18.3 °C 57.2 °F /  14 °C 30in /  1014.6hPa WNW 4mph /  6.5km/h 5.6mph /  9km/h 76% 0in /  0.0mm
05:11 64.2 °F /  17.9 °C 56.5 °F /  13.6 °C 30in /  1014.4hPa WNW 1.4mph /  2.2km/h 3.1mph /  5km/h 76% 0in /  0.0mm
06:11 63.3 °F /  17.4 °C 55.9 °F /  13.3 °C 29.9in /  1014.0hPa WNW 3.4mph /  5.4km/h 4.2mph /  6.8km/h 77% 0in /  0.0mm
07:11 62.8 °F /  17.1 °C 55 °F /  12.8 °C 29.9in /  1013.9hPa WNW 2.9mph /  4.7km/h 2.9mph /  4.7km/h 76% 0in /  0.0mm
08:11 62.4 °F /  16.9 °C 54.7 °F /  12.6 °C 30in /  1014.3hPa WNW 1.8mph /  2.9km/h 3.6mph /  5.8km/h 76% 0in /  0.0mm
09:11 67.8 °F /  19.9 °C 58.1 °F /  14.5 °C 30in /  1014.5hPa Calm   1.8mph /  2.9km/h 71% 0in /  0.0mm
10:11 69.1 °F /  20.6 °C 58.8 °F /  14.9 °C 30in /  1014.7hPa WNW 2.9mph /  4.7km/h 3.6mph /  5.8km/h 70% 0in /  0.0mm
11:11 70.9 °F /  21.6 °C 60.6 °F /  15.9 °C 29.9in /  1014.0hPa Calm   4.5mph /  7.2km/h 70% 0in /  0.0mm
12:11 73.2 °F /  22.9 °C 62.1 °F /  16.7 °C 30in /  1014.3hPa SSW 4.5mph /  7.2km/h 7.8mph /  12.6km/h 68% 0in /  0.0mm
13:11 74.5 °F /  23.6 °C 62.4 °F /  16.9 °C 30in /  1014.4hPa South 3.8mph /  6.1km/h 10.5mph /  16.9km/h 66% 0in /  0.0mm
14:11 76.3 °F /  24.6 °C 64 °F /  17.8 °C 29.9in /  1014.0hPa ESE 7.1mph /  11.5km/h 7.4mph /  11.9km/h 66% 0in /  0.0mm
15:11 77.4 °F /  25.2 °C 64.6 °F /  18.1 °C 29.9in /  1013.6hPa South 0.9mph /  1.4km/h 5.2mph /  8.3km/h 65% 0in /  0.0mm
16:11 77.2 °F /  25.1 °C 64.4 °F /  18 °C 29.9in /  1013.2hPa East 2.2mph /  3.6km/h 7.6mph /  12.2km/h 65% 0in /  0.0mm
17:11 75.7 °F /  24.3 °C 64.4 °F /  18 °C 29.9in /  1013.2hPa Calm   3.1mph /  5km/h 68% 0in /  0.0mm
18:11 74.1 °F /  23.4 °C 63.3 °F /  17.4 °C 29.9in /  1012.7hPa South 0.9mph /  1.4km/h 6mph /  9.7km/h 69% 0in /  0.0mm
19:11 71.4 °F /  21.9 °C 61.9 °F /  16.6 °C 29.9in /  1012.6hPa ESE 1.4mph /  2.2km/h 7.4mph /  11.9km/h 72% 0in /  0.0mm
20:11 70.3 °F /  21.3 °C 62.1 °F /  16.7 °C 29.9in /  1012.9hPa SSE 1.6mph /  2.5km/h 6.7mph /  10.8km/h 75% 0in /  0.0mm
21:11 70 °F /  21.1 °C 62.1 °F /  16.7 °C 29.9in /  1013.2hPa NNW 7mph /  11.2km/h 7mph /  11.2km/h 76% 0in /  0.0mm
22:11 69.4 °F /  20.8 °C 61.9 °F /  16.6 °C 29.9in /  1013.0hPa Calm   7mph /  11.2km/h 77% 0in /  0.0mm
23:11 68.7 °F /  20.4 °C 61.2 °F /  16.2 °C 29.9in /  1012.7hPa Calm   6mph /  9.7km/h 77% 0in /  0.0mm
Observations météo à CASSIS
WU-History script by Weather Underground - 2 mb